createdAt,value
2019-05-18T00:00:52.852Z,27.60
2019-05-18T00:05:59.372Z,28.37
2019-05-18T00:11:04.343Z,26.67
2019-05-18T00:16:09.698Z,27.40
2019-05-18T00:21:14.642Z,27.93
2019-05-18T00:26:19.655Z,28.50
2019-05-18T00:31:24.559Z,27.53
2019-05-18T00:36:29.931Z,27.57
2019-05-18T00:41:36.859Z,27.37
2019-05-18T00:46:42.016Z,27.87
2019-05-18T00:51:47.631Z,27.10
2019-05-18T00:56:52.718Z,28.87
2019-05-18T01:01:58.737Z,29.30
2019-05-18T01:07:03.555Z,30.60
2019-05-18T01:12:08.466Z,29.53
2019-05-18T01:17:16.721Z,31.77
2019-05-18T01:22:26.751Z,31.93
2019-05-18T01:27:33.631Z,32.57
2019-05-18T01:32:39.735Z,31.97
2019-05-18T01:37:44.853Z,32.17
2019-05-18T01:42:50.763Z,32.83
2019-05-18T01:48:12.224Z,31.07
2019-05-18T01:53:05.847Z,32.23
2019-05-18T01:58:10.667Z,31.43
2019-05-18T02:03:15.434Z,29.93
2019-05-18T02:08:20.286Z,31.10
2019-05-18T02:13:27.197Z,38.53
2019-05-18T02:18:34.359Z,32.53
2019-05-18T02:23:40.061Z,32.63
2019-05-18T02:28:44.946Z,32.53
2019-05-18T02:33:50.438Z,32.67
2019-05-18T02:38:55.411Z,32.97
2019-05-18T02:44:00.361Z,32.27
2019-05-18T02:49:06.992Z,33.57
2019-05-18T02:54:12.008Z,32.13
2019-05-18T02:59:16.994Z,31.47
2019-05-18T03:04:23.120Z,31.13
2019-05-18T03:09:28.339Z,30.53
2019-05-18T03:14:33.291Z,33.00
2019-05-18T03:19:41.232Z,33.07
2019-05-18T03:24:46.211Z,33.67
2019-05-18T03:29:54.009Z,31.40
2019-05-18T03:34:59.080Z,33.30
2019-05-18T03:40:04.291Z,32.57
2019-05-18T03:45:09.351Z,33.90
2019-05-18T03:50:14.298Z,32.87
2019-05-18T03:55:21.289Z,32.43
2019-05-18T04:00:28.684Z,34.70
2019-05-18T04:05:33.507Z,35.00
2019-05-18T04:10:38.790Z,34.43
2019-05-18T04:15:43.596Z,36.73
2019-05-18T04:20:48.720Z,36.13
2019-05-18T04:25:57.429Z,37.63
2019-05-18T04:31:05.372Z,37.37
2019-05-18T04:36:10.394Z,37.90
2019-05-18T04:41:15.351Z,38.67
2019-05-18T04:46:24.593Z,36.67
2019-05-18T04:51:30.428Z,35.97
2019-05-18T04:56:36.753Z,34.80
2019-05-18T05:01:41.581Z,38.70
2019-05-18T05:06:46.618Z,38.40
2019-05-18T05:11:51.452Z,36.30
2019-05-18T05:16:57.264Z,37.80
2019-05-18T05:22:02.069Z,35.87
2019-05-18T05:27:10.483Z,39.37
2019-05-18T05:32:15.237Z,37.23
2019-05-18T05:37:23.406Z,38.03
2019-05-18T05:42:28.766Z,38.17
2019-05-18T05:47:34.083Z,38.27
2019-05-18T05:52:45.295Z,40.30
2019-05-18T05:57:50.436Z,37.37
2019-05-18T06:02:57.338Z,38.23
2019-05-18T06:08:02.168Z,41.07
2019-05-18T06:13:08.270Z,39.83
2019-05-18T06:18:13.480Z,43.87
2019-05-18T06:23:18.357Z,44.27
2019-05-18T06:28:23.619Z,45.80
2019-05-18T06:33:28.748Z,48.53
2019-05-18T06:38:33.818Z,47.40
2019-05-18T06:43:41.080Z,46.63
2019-05-18T06:48:46.408Z,45.43
2019-05-18T06:53:51.450Z,43.70
2019-05-18T06:58:59.459Z,44.17
2019-05-18T07:04:06.768Z,51.97
2019-05-18T07:09:14.118Z,45.97
2019-05-18T07:14:25.715Z,42.60
2019-05-18T07:19:26.203Z,40.12
2019-05-18T07:24:31.338Z,60.53
2019-05-18T07:29:36.699Z,41.00
2019-05-18T07:34:43.470Z,35.52
2019-05-18T07:39:48.242Z,35.70
2019-05-18T07:44:53.339Z,39.83
2019-05-18T07:49:58.423Z,43.35
2019-05-18T07:55:03.881Z,57.33
2019-05-18T08:00:09.681Z,57.25
2019-05-18T08:05:15.107Z,51.70
2019-05-18T08:10:34.117Z,39.27
2019-05-18T08:15:39.597Z,36.60
2019-05-18T08:20:44.458Z,36.58
2019-05-18T08:25:52.148Z,35.52
2019-05-18T08:30:57.222Z,37.38
2019-05-18T08:36:02.303Z,35.03
2019-05-18T08:41:08.470Z,35.70
2019-05-18T08:46:13.507Z,47.33
2019-05-18T08:51:18.704Z,42.62
2019-05-18T08:56:23.647Z,39.48
2019-05-18T09:01:28.659Z,34.67
2019-05-18T09:06:33.538Z,33.55
2019-05-18T09:11:38.569Z,32.30
2019-05-18T09:16:43.801Z,33.35
2019-05-18T09:21:48.697Z,33.48
2019-05-18T09:26:53.651Z,31.50
2019-05-18T09:31:58.670Z,29.42
2019-05-18T09:37:03.668Z,28.73
2019-05-18T09:42:08.508Z,33.88
2019-05-18T09:47:13.545Z,29.35
2019-05-18T09:52:18.796Z,30.30
2019-05-18T09:57:23.624Z,29.65
2019-05-18T10:02:28.475Z,28.60
2019-05-18T10:07:33.365Z,29.70
2019-05-18T10:12:38.272Z,28.73
2019-05-18T10:17:43.355Z,35.23
2019-05-18T10:22:59.229Z,29.18
2019-05-18T10:27:55.484Z,32.00
2019-05-18T10:33:00.665Z,31.05
2019-05-18T10:38:05.519Z,33.02
2019-05-18T10:43:10.730Z,29.15
2019-05-18T10:48:15.995Z,28.98
2019-05-18T10:53:28.666Z,27.85
2019-05-18T10:58:28.052Z,27.45
2019-05-18T11:03:33.100Z,28.15
2019-05-18T11:08:38.542Z,29.40
2019-05-18T11:13:44.867Z,27.73
2019-05-18T11:18:49.860Z,28.15
2019-05-18T11:23:54.837Z,28.42
2019-05-18T11:28:59.645Z,25.72
2019-05-18T11:34:04.380Z,28.07
2019-05-18T11:39:09.049Z,25.82
2019-05-18T11:44:16.592Z,24.50
2019-05-18T11:49:20.929Z,25.25
2019-05-18T11:54:25.309Z,27.87
2019-05-18T11:59:29.918Z,28.45
2019-05-18T12:04:37.388Z,29.72
2019-05-18T12:09:49.254Z,31.33
2019-05-18T12:14:53.652Z,28.57
2019-05-18T12:19:59.004Z,28.25
2019-05-18T12:25:12.264Z,30.75
2019-05-18T12:30:19.794Z,31.17
2019-05-18T12:35:24.124Z,28.90
2019-05-18T12:40:28.446Z,25.82
2019-05-18T12:45:32.723Z,25.82
2019-05-18T12:50:37.517Z,26.95
2019-05-18T12:55:42.057Z,25.45
2019-05-18T13:00:49.316Z,27.48
2019-05-18T13:05:54.245Z,26.33
2019-05-18T13:10:59.465Z,28.55
2019-05-18T13:16:06.121Z,26.52
2019-05-18T13:21:10.605Z,26.20
2019-05-18T13:26:14.845Z,24.72
2019-05-18T13:31:19.447Z,26.55
2019-05-18T13:36:24.946Z,22.93
2019-05-18T13:41:29.303Z,27.27
2019-05-18T13:46:35.114Z,34.50
2019-05-18T13:51:39.804Z,38.80
2019-05-18T13:56:44.456Z,43.15
2019-05-18T14:01:50.254Z,42.80
2019-05-18T14:06:56.245Z,42.90
2019-05-18T14:12:02.272Z,43.13
2019-05-18T14:17:07.553Z,43.63
2019-05-18T14:22:13.229Z,45.05
2019-05-18T14:27:17.847Z,44.75
2019-05-18T14:32:22.085Z,46.05
2019-05-18T14:37:26.819Z,47.43
2019-05-18T14:42:31.374Z,42.40
2019-05-18T14:47:38.668Z,45.30
2019-05-18T14:52:43.244Z,44.40
2019-05-18T14:57:48.152Z,42.62
2019-05-18T15:02:52.720Z,41.63
2019-05-18T15:07:57.092Z,43.20
2019-05-18T15:13:01.934Z,40.40
2019-05-18T15:18:06.638Z,41.73
2019-05-18T15:23:10.985Z,43.70
2019-05-18T15:28:15.381Z,42.30
2019-05-18T15:33:19.659Z,42.35
2019-05-18T15:38:25.592Z,41.77
2019-05-18T15:43:32.301Z,42.48
2019-05-18T15:48:36.926Z,44.30
2019-05-18T15:53:41.242Z,43.08
2019-05-18T15:58:45.940Z,46.30
2019-05-18T16:03:50.213Z,43.75
2019-05-18T16:08:54.907Z,42.75
2019-05-18T16:13:59.168Z,44.18
2019-05-18T16:19:03.568Z,41.42
2019-05-18T16:24:07.860Z,44.93
2019-05-18T16:29:12.226Z,42.10
2019-05-18T16:34:16.599Z,47.10
2019-05-18T16:39:20.907Z,47.53
2019-05-18T16:44:25.165Z,46.35
2019-05-18T16:49:29.467Z,47.75
2019-05-18T16:54:33.692Z,46.30
2019-05-18T16:59:38.247Z,42.95
2019-05-18T17:04:42.570Z,44.98
2019-05-18T17:09:47.252Z,43.65
2019-05-18T17:14:51.640Z,43.68
2019-05-18T17:19:55.956Z,39.45
2019-05-18T17:25:00.257Z,40.58
2019-05-18T17:30:05.707Z,43.33
2019-05-18T17:35:10.479Z,46.35
2019-05-18T17:40:14.894Z,50.73
2019-05-18T17:45:19.523Z,47.65
2019-05-18T17:50:24.595Z,40.63
2019-05-18T17:55:29.700Z,40.38
2019-05-18T18:00:35.209Z,42.48
2019-05-18T18:05:40.158Z,40.35
2019-05-18T18:10:45.591Z,42.60
2019-05-18T18:15:50.777Z,44.65
2019-05-18T18:20:55.914Z,44.77
2019-05-18T18:26:01.020Z,46.30
2019-05-18T18:31:06.865Z,42.38
2019-05-18T18:36:12.156Z,45.52
2019-05-18T18:41:17.333Z,46.73
2019-05-18T18:46:22.659Z,51.85
2019-05-18T18:51:27.722Z,47.73
2019-05-18T18:56:32.707Z,52.30
2019-05-18T19:01:38.433Z,53.85
2019-05-18T19:06:43.843Z,51.75
2019-05-18T19:11:49.011Z,57.08
2019-05-18T19:16:53.989Z,51.70
2019-05-18T19:21:59.322Z,53.52
2019-05-18T19:27:04.357Z,57.50
2019-05-18T19:32:09.603Z,52.98
2019-05-18T19:37:15.653Z,53.30
2019-05-18T19:42:20.898Z,53.60
2019-05-18T19:47:26.147Z,50.75
2019-05-18T19:52:31.288Z,49.05
2019-05-18T19:57:37.205Z,49.30
2019-05-18T20:02:43.168Z,49.88
2019-05-18T20:07:48.037Z,50.43
2019-05-18T20:12:53.206Z,49.20
2019-05-18T20:17:57.546Z,52.03
2019-05-18T20:23:01.873Z,52.00
2019-05-18T20:28:07.083Z,54.13
2019-05-18T20:33:12.637Z,53.52
2019-05-18T20:38:17.571Z,54.03
2019-05-18T20:43:23.059Z,52.45
2019-05-18T20:48:27.928Z,54.23
2019-05-18T20:53:33.321Z,53.02
2019-05-18T20:58:40.591Z,53.68
2019-05-18T21:03:45.911Z,58.98
2019-05-18T21:08:51.315Z,55.67
2019-05-18T21:13:57.791Z,57.10
2019-05-18T21:19:04.767Z,58.20
2019-05-18T21:24:10.259Z,66.40
2019-05-18T21:29:17.881Z,58.35
2019-05-18T21:34:23.462Z,60.48
2019-05-18T21:39:28.674Z,61.68
2019-05-18T21:44:34.381Z,62.03
2019-05-18T21:49:39.243Z,61.13
2019-05-18T21:54:44.718Z,58.80
2019-05-18T21:59:49.979Z,63.60
2019-05-18T22:04:57.670Z,62.00
2019-05-18T22:10:03.727Z,61.68
2019-05-18T22:15:08.980Z,61.90
2019-05-18T22:20:14.238Z,64.03
2019-05-18T22:25:19.086Z,69.27
2019-05-18T22:30:24.753Z,67.47
2019-05-18T22:35:30.365Z,64.53
2019-05-18T22:40:35.336Z,60.92
2019-05-18T22:45:42.917Z,69.12
2019-05-18T22:50:48.241Z,68.57
2019-05-18T22:55:53.303Z,64.65
2019-05-18T23:00:58.088Z,68.67
2019-05-18T23:06:04.741Z,66.67
2019-05-18T23:11:09.912Z,62.75
2019-05-18T23:16:15.303Z,67.65
2019-05-18T23:21:20.671Z,62.03
2019-05-18T23:26:25.928Z,62.78
2019-05-18T23:31:32.097Z,64.10
2019-05-18T23:36:37.574Z,65.67
2019-05-18T23:41:43.940Z,67.70
2019-05-18T23:46:49.542Z,69.87
2019-05-18T23:51:54.551Z,67.87
2019-05-18T23:57:02.397Z,67.20
